createdAt,value
2022-12-17T00:01:58.851Z,17.25
2022-12-17T00:04:45.467Z,20.00
2022-12-17T00:07:31.901Z,16.00
2022-12-17T00:10:18.915Z,17.00
2022-12-17T00:13:08.879Z,15.25
2022-12-17T00:15:56.263Z,17.75
2022-12-17T00:18:43.406Z,18.00
2022-12-17T00:21:30.735Z,15.75
2022-12-17T00:24:17.384Z,21.00
2022-12-17T00:27:03.949Z,20.25
2022-12-17T00:29:50.444Z,18.00
2022-12-17T00:32:37.079Z,19.75
2022-12-17T00:35:23.494Z,18.50
2022-12-17T00:38:10.260Z,19.00
2022-12-17T00:40:56.823Z,21.75
2022-12-17T00:43:43.798Z,20.50
2022-12-17T00:46:30.705Z,23.00
2022-12-17T00:49:17.206Z,25.00
2022-12-17T00:52:03.882Z,28.00
2022-12-17T00:54:50.555Z,24.25
2022-12-17T00:57:37.280Z,24.00
2022-12-17T01:00:24.843Z,21.50
2022-12-17T01:03:16.350Z,21.25
2022-12-17T01:06:03.002Z,25.50
2022-12-17T01:08:49.466Z,18.25
2022-12-17T01:11:35.911Z,19.75
2022-12-17T01:14:22.574Z,22.50
2022-12-17T01:17:09.150Z,20.50
2022-12-17T01:19:55.704Z,18.75
2022-12-17T01:22:43.248Z,19.00
2022-12-17T01:25:29.904Z,22.25
2022-12-17T01:28:16.587Z,20.25
2022-12-17T01:31:03.092Z,21.75
2022-12-17T01:34:09.706Z,17.50
2022-12-17T01:36:56.240Z,20.25
2022-12-17T01:39:42.577Z,24.00
2022-12-17T01:42:32.279Z,16.75
2022-12-17T01:45:18.803Z,22.50
2022-12-17T01:48:34.232Z,18.50
2022-12-17T01:51:23.156Z,19.75
2022-12-17T01:54:13.338Z,18.00
2022-12-17T01:57:02.942Z,16.00
2022-12-17T02:00:01.996Z,18.75
2022-12-17T02:02:48.714Z,18.25
2022-12-17T02:05:35.589Z,17.50
2022-12-17T02:08:51.490Z,19.00
2022-12-17T02:11:48.718Z,18.25
2022-12-17T02:14:52.405Z,18.50
2022-12-17T02:17:44.727Z,17.75
2022-12-17T02:21:03.113Z,13.25
2022-12-17T02:24:14.238Z,17.00
2022-12-17T02:27:08.896Z,17.25
2022-12-17T02:30:07.928Z,17.25
2022-12-17T02:32:57.192Z,21.00
2022-12-17T02:35:52.163Z,19.25
2022-12-17T02:38:38.406Z,17.50
2022-12-17T02:41:27.368Z,16.25
2022-12-17T02:44:15.452Z,15.75
2022-12-17T02:47:03.729Z,18.00
2022-12-17T02:49:50.799Z,20.50
2022-12-17T02:52:41.441Z,19.75
2022-12-17T02:55:34.429Z,16.25
2022-12-17T02:58:21.068Z,17.25
2022-12-17T03:01:08.201Z,20.25
2022-12-17T03:03:54.988Z,15.50
2022-12-17T03:06:41.460Z,17.50
2022-12-17T03:09:28.015Z,15.25
2022-12-17T03:12:14.399Z,17.00
2022-12-17T03:15:00.863Z,14.75
2022-12-17T03:17:48.788Z,15.25
2022-12-17T03:20:35.993Z,14.00
2022-12-17T03:23:30.282Z,16.25
2022-12-17T03:26:21.355Z,17.75
2022-12-17T03:29:08.320Z,13.50
2022-12-17T03:31:54.934Z,14.25
2022-12-17T03:34:41.670Z,16.25
2022-12-17T03:37:28.484Z,17.00
2022-12-17T03:40:15.050Z,15.25
2022-12-17T03:43:01.464Z,17.50
2022-12-17T03:45:48.154Z,19.25
2022-12-17T03:48:35.205Z,14.00
2022-12-17T03:51:22.467Z,14.75
2022-12-17T03:54:09.068Z,14.75
2022-12-17T03:56:55.660Z,16.75
2022-12-17T03:59:42.390Z,18.00
2022-12-17T04:02:29.230Z,18.25
2022-12-17T04:05:20.116Z,20.50
2022-12-17T04:08:07.711Z,19.25
2022-12-17T04:10:54.708Z,17.50
2022-12-17T04:13:44.128Z,13.00
2022-12-17T04:16:33.392Z,12.50
2022-12-17T04:19:20.389Z,16.50
2022-12-17T04:22:07.002Z,16.00
2022-12-17T04:24:53.908Z,13.25
2022-12-17T04:27:40.451Z,15.75
2022-12-17T04:30:28.194Z,14.50
2022-12-17T04:33:14.701Z,14.50
2022-12-17T04:36:01.246Z,16.00
2022-12-17T04:38:48.308Z,12.75
2022-12-17T04:41:35.144Z,12.25
2022-12-17T04:44:21.658Z,12.25
2022-12-17T04:47:08.492Z,10.25
2022-12-17T04:49:55.096Z,12.75
2022-12-17T04:52:41.622Z,14.25
2022-12-17T04:55:28.477Z,11.75
2022-12-17T04:58:21.219Z,15.75
2022-12-17T05:01:07.955Z,12.00
2022-12-17T05:03:54.835Z,16.25
2022-12-17T05:06:41.872Z,16.50
2022-12-17T05:09:28.647Z,16.75
2022-12-17T05:12:15.420Z,13.50
2022-12-17T05:15:01.897Z,17.75
2022-12-17T05:17:48.581Z,14.75
2022-12-17T05:20:35.375Z,13.00
2022-12-17T05:23:27.031Z,14.75
2022-12-17T05:26:30.376Z,15.50
2022-12-17T05:29:17.249Z,13.50
2022-12-17T05:32:03.721Z,13.75
2022-12-17T05:34:50.256Z,14.00
2022-12-17T05:37:36.931Z,12.50
2022-12-17T05:40:24.804Z,14.00
2022-12-17T05:43:20.105Z,12.25
2022-12-17T05:46:08.266Z,14.25
2022-12-17T05:48:56.053Z,14.75
2022-12-17T05:51:42.595Z,12.25
2022-12-17T05:54:29.350Z,14.00
2022-12-17T05:57:15.757Z,14.25
2022-12-17T06:00:02.333Z,13.75
2022-12-17T06:02:49.076Z,13.50
2022-12-17T06:05:35.981Z,11.25
2022-12-17T06:08:25.583Z,11.00
2022-12-17T06:11:13.282Z,8.50
2022-12-17T06:13:59.812Z,10.50
2022-12-17T06:16:46.390Z,12.50
2022-12-17T06:19:32.910Z,12.75
2022-12-17T06:22:20.007Z,11.75
2022-12-17T06:25:06.530Z,14.75
2022-12-17T06:27:53.054Z,12.50
2022-12-17T06:30:39.528Z,12.00
2022-12-17T06:33:31.124Z,11.00
2022-12-17T06:36:38.586Z,11.75
2022-12-17T06:39:25.280Z,13.00
2022-12-17T06:42:11.836Z,16.75
2022-12-17T06:44:58.305Z,13.75
2022-12-17T06:47:44.786Z,16.00
2022-12-17T06:50:31.361Z,12.75
2022-12-17T06:53:22.245Z,12.75
2022-12-17T06:56:09.012Z,15.25
2022-12-17T06:58:55.970Z,15.25
2022-12-17T07:01:43.158Z,14.50
2022-12-17T07:04:29.860Z,14.75
2022-12-17T07:07:21.351Z,14.75
2022-12-17T07:10:13.668Z,16.75
2022-12-17T07:13:01.072Z,13.00
2022-12-17T07:15:48.089Z,16.25
2022-12-17T07:18:34.839Z,14.75
2022-12-17T07:21:21.481Z,14.25
2022-12-17T07:24:08.316Z,14.25
2022-12-17T07:26:54.824Z,13.25
2022-12-17T07:29:41.589Z,11.00
2022-12-17T07:32:28.661Z,13.00
2022-12-17T07:35:15.557Z,10.00
2022-12-17T07:38:02.121Z,12.25
2022-12-17T07:40:48.794Z,9.50
2022-12-17T07:43:35.904Z,14.75
2022-12-17T07:46:22.853Z,14.50
2022-12-17T07:49:09.546Z,11.25
2022-12-17T07:51:57.151Z,10.50
2022-12-17T07:54:43.636Z,11.00
2022-12-17T07:57:30.392Z,14.25
2022-12-17T08:00:17.170Z,9.25
2022-12-17T08:03:03.972Z,14.00
2022-12-17T08:05:50.964Z,12.75
2022-12-17T08:08:37.668Z,10.50
2022-12-17T08:11:24.484Z,10.25
2022-12-17T08:14:11.151Z,12.75
2022-12-17T08:16:58.121Z,11.50
2022-12-17T08:19:44.678Z,12.00
2022-12-17T08:22:31.332Z,11.50
2022-12-17T08:25:18.295Z,12.75
2022-12-17T08:28:11.058Z,10.50
2022-12-17T08:31:02.770Z,15.50
2022-12-17T08:33:49.514Z,13.75
2022-12-17T08:36:36.101Z,15.50
2022-12-17T08:39:22.895Z,11.75
2022-12-17T08:42:09.709Z,14.50
2022-12-17T08:44:56.242Z,11.75
2022-12-17T08:47:43.876Z,15.25
2022-12-17T08:50:30.744Z,13.00
2022-12-17T08:53:19.246Z,12.75
2022-12-17T08:56:05.771Z,15.00
2022-12-17T08:58:57.229Z,11.75
2022-12-17T09:01:45.763Z,13.75
2022-12-17T09:04:32.680Z,16.25
2022-12-17T09:07:19.256Z,11.75
2022-12-17T09:10:06.135Z,17.75
2022-12-17T09:12:52.933Z,11.50
2022-12-17T09:15:39.627Z,14.50
2022-12-17T09:18:26.644Z,13.00
2022-12-17T09:21:14.524Z,12.00
2022-12-17T09:24:01.161Z,12.25
2022-12-17T09:26:47.554Z,11.75
2022-12-17T09:29:34.380Z,11.50
2022-12-17T09:32:20.876Z,13.00
2022-12-17T09:35:07.500Z,12.25
2022-12-17T09:37:54.387Z,10.50
2022-12-17T09:40:43.798Z,14.25
2022-12-17T09:43:49.342Z,12.50
2022-12-17T09:46:44.394Z,12.50
2022-12-17T09:49:33.866Z,12.50
2022-12-17T09:52:31.126Z,12.50
2022-12-17T09:55:17.892Z,11.00
2022-12-17T09:58:04.710Z,16.50
2022-12-17T10:00:52.263Z,12.25
2022-12-17T10:03:43.348Z,12.50
2022-12-17T10:06:39.691Z,13.75
2022-12-17T10:09:37.751Z,10.25
2022-12-17T10:12:34.790Z,15.00
2022-12-17T10:15:21.505Z,13.25
2022-12-17T10:18:07.950Z,14.00
2022-12-17T10:21:03.529Z,12.00
2022-12-17T10:23:52.073Z,14.00
2022-12-17T10:26:45.657Z,15.25
2022-12-17T10:29:35.745Z,20.25
2022-12-17T10:32:35.653Z,15.00
2022-12-17T10:35:31.603Z,14.50
2022-12-17T10:38:21.221Z,16.50
2022-12-17T10:41:07.762Z,17.75
2022-12-17T10:43:59.603Z,14.50
2022-12-17T10:46:51.398Z,18.00
2022-12-17T10:49:44.526Z,16.00
2022-12-17T10:52:45.313Z,11.00
2022-12-17T10:55:46.081Z,11.75
2022-12-17T10:58:42.573Z,12.75
2022-12-17T11:01:40.168Z,13.00
2022-12-17T11:04:42.316Z,11.75
2022-12-17T11:07:35.207Z,10.00
2022-12-17T11:10:24.660Z,12.75
2022-12-17T11:13:17.152Z,9.75
2022-12-17T11:16:13.718Z,12.50
2022-12-17T11:19:11.625Z,11.00
2022-12-17T11:22:08.270Z,9.75
2022-12-17T11:25:06.208Z,10.00
2022-12-17T11:28:04.317Z,13.50
2022-12-17T11:31:00.628Z,10.00
2022-12-17T11:34:09.490Z,13.00
2022-12-17T11:37:08.821Z,10.50
2022-12-17T11:40:30.517Z,11.00
2022-12-17T11:43:39.668Z,12.00
2022-12-17T11:46:40.392Z,10.50
2022-12-17T11:49:45.143Z,10.00
2022-12-17T11:52:52.166Z,12.50
2022-12-17T11:56:12.852Z,11.50
2022-12-17T11:59:12.041Z,10.25
2022-12-17T12:02:22.093Z,10.00
2022-12-17T12:05:37.014Z,10.25
2022-12-17T12:08:35.422Z,8.75
2022-12-17T12:11:46.494Z,12.00
2022-12-17T12:15:04.565Z,10.50
2022-12-17T12:18:31.628Z,9.25
2022-12-17T12:21:49.814Z,11.25
2022-12-17T12:24:48.084Z,9.25
2022-12-17T12:27:49.431Z,9.00
2022-12-17T12:30:41.581Z,12.00
2022-12-17T12:33:51.655Z,11.50
2022-12-17T12:36:40.711Z,10.00
2022-12-17T12:39:36.164Z,10.25
2022-12-17T12:42:40.616Z,11.50
2022-12-17T12:45:45.761Z,10.50
2022-12-17T12:48:47.386Z,10.25
2022-12-17T12:51:42.487Z,10.25
2022-12-17T12:54:42.989Z,12.25
2022-12-17T12:58:14.107Z,10.50
2022-12-17T13:01:13.471Z,13.75
2022-12-17T13:04:03.052Z,13.25
2022-12-17T13:06:55.050Z,11.75
2022-12-17T13:09:35.379Z,12.00
2022-12-17T13:12:03.848Z,13.75
2022-12-17T13:14:50.933Z,14.00
2022-12-17T13:17:19.234Z,12.75
2022-12-17T13:20:01.196Z,13.50
2022-12-17T13:22:31.430Z,10.00
2022-12-17T13:25:32.116Z,12.00
2022-12-17T13:28:00.575Z,13.50
2022-12-17T13:30:39.861Z,17.00
2022-12-17T13:33:28.232Z,14.00
2022-12-17T13:36:11.796Z,15.50
2022-12-17T13:38:45.710Z,12.75
2022-12-17T13:41:17.155Z,16.00
2022-12-17T13:43:50.353Z,18.75
2022-12-17T13:46:47.011Z,14.75
2022-12-17T13:49:27.744Z,17.25
2022-12-17T13:52:18.567Z,16.50
2022-12-17T13:54:47.438Z,15.50
2022-12-17T13:57:27.134Z,12.25
2022-12-17T13:59:58.197Z,14.25
2022-12-17T14:02:35.457Z,11.25
2022-12-17T14:05:08.236Z,18.00
2022-12-17T14:07:40.332Z,10.00
2022-12-17T14:10:17.692Z,13.00
2022-12-17T14:12:46.576Z,13.00
2022-12-17T14:15:34.246Z,17.75
2022-12-17T14:18:04.036Z,10.75
2022-12-17T14:20:35.423Z,13.75
2022-12-17T14:23:27.498Z,12.75
2022-12-17T14:25:56.291Z,14.50
2022-12-17T14:28:35.043Z,14.50
2022-12-17T14:31:31.661Z,11.75
2022-12-17T14:34:09.747Z,17.00
2022-12-17T14:36:42.690Z,12.75
2022-12-17T14:39:25.704Z,14.50
2022-12-17T14:42:13.692Z,13.75
2022-12-17T14:45:08.879Z,12.50
2022-12-17T14:47:38.962Z,13.50
2022-12-17T14:50:13.625Z,15.25
2022-12-17T14:52:43.736Z,14.00
2022-12-17T14:55:32.321Z,14.00
2022-12-17T14:58:18.817Z,12.25
2022-12-17T15:01:06.047Z,14.25
2022-12-17T15:03:39.763Z,14.75
2022-12-17T15:06:10.982Z,12.25
2022-12-17T15:08:44.818Z,12.25
2022-12-17T15:11:15.167Z,13.75
2022-12-17T15:13:43.810Z,14.75
2022-12-17T15:16:12.974Z,14.00
2022-12-17T15:18:41.399Z,12.00
2022-12-17T15:21:13.711Z,16.75
2022-12-17T15:23:46.302Z,13.75
2022-12-17T15:26:16.124Z,13.00
2022-12-17T15:28:46.026Z,12.50
2022-12-17T15:31:17.782Z,16.00
2022-12-17T15:33:48.974Z,13.00
2022-12-17T15:36:17.548Z,13.75
2022-12-17T15:38:47.263Z,14.25
2022-12-17T15:41:33.675Z,16.25
2022-12-17T15:44:02.018Z,14.00
2022-12-17T15:46:31.059Z,11.75
2022-12-17T15:48:59.466Z,14.00
2022-12-17T15:51:28.201Z,16.25
2022-12-17T15:53:56.485Z,14.75
2022-12-17T15:56:29.625Z,14.00
2022-12-17T15:59:01.027Z,15.75
2022-12-17T16:01:29.597Z,14.00
2022-12-17T16:03:59.315Z,14.00
2022-12-17T16:06:27.598Z,16.75
2022-12-17T16:08:55.933Z,14.00
2022-12-17T16:11:24.238Z,15.50
2022-12-17T16:13:56.227Z,15.00
2022-12-17T16:16:25.624Z,12.50
2022-12-17T16:18:54.206Z,16.50
2022-12-17T16:21:22.554Z,11.00
2022-12-17T16:23:51.015Z,13.00
2022-12-17T16:26:19.300Z,14.25
2022-12-17T16:28:47.621Z,14.00
2022-12-17T16:31:17.070Z,11.75
2022-12-17T16:33:49.368Z,17.50
2022-12-17T16:36:21.169Z,16.75
2022-12-17T16:38:52.672Z,15.00
2022-12-17T16:41:22.484Z,16.50
2022-12-17T16:43:50.848Z,16.50
2022-12-17T16:46:37.448Z,18.75
2022-12-17T16:49:08.697Z,17.50
2022-12-17T16:51:37.391Z,19.50
2022-12-17T16:54:29.155Z,16.50
2022-12-17T16:56:57.507Z,17.00
2022-12-17T16:59:26.121Z,18.25
2022-12-17T17:01:54.700Z,19.25
2022-12-17T17:04:24.277Z,19.00
2022-12-17T17:06:55.476Z,21.75
2022-12-17T17:09:26.108Z,19.50
2022-12-17T17:11:58.124Z,20.75
2022-12-17T17:14:27.349Z,21.00
2022-12-17T17:16:55.694Z,22.00
2022-12-17T17:19:24.087Z,21.50
2022-12-17T17:21:56.169Z,19.75
2022-12-17T17:24:26.896Z,18.75
2022-12-17T17:26:57.047Z,19.50
2022-12-17T17:29:26.386Z,21.50
2022-12-17T17:32:10.468Z,18.25
2022-12-17T17:34:41.171Z,20.00
2022-12-17T17:37:09.571Z,19.50
2022-12-17T17:39:37.915Z,23.00
2022-12-17T17:42:06.766Z,19.25
2022-12-17T17:44:35.602Z,21.50
2022-12-17T17:47:04.109Z,21.50
2022-12-17T17:49:32.470Z,26.00
2022-12-17T17:52:09.463Z,24.50
2022-12-17T17:54:40.397Z,18.75
2022-12-17T17:57:09.614Z,22.25
2022-12-17T17:59:39.148Z,22.50
2022-12-17T18:02:08.212Z,19.50
2022-12-17T18:04:36.734Z,25.00
2022-12-17T18:09:53.447Z,22.75
2022-12-17T18:12:39.932Z,22.00
2022-12-17T18:15:17.701Z,24.00
2022-12-17T18:17:48.849Z,20.75
2022-12-17T18:20:17.992Z,28.50
2022-12-17T18:22:47.195Z,25.50
2022-12-17T18:25:17.419Z,28.00
2022-12-17T18:27:46.260Z,24.50
2022-12-17T18:30:17.104Z,27.00
2022-12-17T18:32:45.841Z,26.25
2022-12-17T18:35:14.172Z,22.00
2022-12-17T18:37:42.476Z,22.00
2022-12-17T18:40:11.384Z,23.00
2022-12-17T18:42:58.075Z,26.00
2022-12-17T18:45:26.371Z,24.25
2022-12-17T18:47:54.692Z,30.00
2022-12-17T18:50:23.032Z,24.75
2022-12-17T18:52:51.341Z,29.75
2022-12-17T18:55:19.886Z,21.25
2022-12-17T18:57:48.219Z,25.50
2022-12-17T19:00:16.716Z,25.00
2022-12-17T19:02:45.341Z,25.00
2022-12-17T19:05:13.901Z,26.50
2022-12-17T19:07:42.243Z,26.00
2022-12-17T19:10:11.077Z,26.25
2022-12-17T19:12:39.501Z,26.00
2022-12-17T19:15:08.517Z,24.75
2022-12-17T19:17:36.828Z,27.00
2022-12-17T19:20:05.566Z,21.00
2022-12-17T19:22:33.896Z,28.25
2022-12-17T19:25:02.194Z,31.25
2022-12-17T19:27:30.639Z,23.25
2022-12-17T19:29:59.169Z,24.50
2022-12-17T19:32:27.483Z,31.00
2022-12-17T19:34:55.862Z,23.75
2022-12-17T19:37:24.122Z,24.25
2022-12-17T19:39:52.434Z,28.25
2022-12-17T19:42:28.396Z,26.50
2022-12-17T19:45:00.366Z,25.75
2022-12-17T19:47:31.427Z,27.25
2022-12-17T19:49:59.742Z,28.75
2022-12-17T19:52:28.048Z,23.75
2022-12-17T19:54:56.391Z,29.25
2022-12-17T19:57:24.674Z,27.50
2022-12-17T19:59:52.969Z,24.25
2022-12-17T20:02:21.643Z,24.50
2022-12-17T20:04:50.126Z,25.00
2022-12-17T20:07:18.595Z,27.75
2022-12-17T20:09:46.933Z,29.00
2022-12-17T20:12:15.268Z,23.25
2022-12-17T20:14:43.634Z,24.25
2022-12-17T20:17:11.945Z,20.00
2022-12-17T20:19:40.309Z,26.75
2022-12-17T20:22:08.756Z,24.25
2022-12-17T20:24:38.247Z,29.75
2022-12-17T20:27:07.061Z,24.25
2022-12-17T20:29:35.454Z,25.00
2022-12-17T20:32:04.307Z,22.75
2022-12-17T20:34:32.944Z,23.75
2022-12-17T20:37:01.290Z,22.25
2022-12-17T20:39:29.650Z,24.75
2022-12-17T20:41:59.056Z,23.25
2022-12-17T20:44:27.407Z,24.25
2022-12-17T20:46:55.841Z,26.00
2022-12-17T20:49:24.184Z,25.50
2022-12-17T20:51:52.522Z,29.75
2022-12-17T20:54:22.045Z,26.50
2022-12-17T20:56:50.901Z,23.50
2022-12-17T20:59:20.648Z,22.25
2022-12-17T21:01:55.563Z,28.25
2022-12-17T21:04:24.529Z,24.25
2022-12-17T21:06:52.868Z,25.50
2022-12-17T21:09:23.249Z,25.75
2022-12-17T21:11:51.545Z,22.50
2022-12-17T21:14:20.677Z,19.50
2022-12-17T21:16:49.387Z,23.50
2022-12-17T21:19:20.477Z,26.50
2022-12-17T21:21:49.258Z,24.00
2022-12-17T21:24:18.046Z,26.25
2022-12-17T21:26:47.996Z,25.00
2022-12-17T21:29:16.928Z,23.00
2022-12-17T21:31:53.298Z,22.00
2022-12-17T21:34:26.070Z,25.25
2022-12-17T21:36:54.433Z,23.50
2022-12-17T21:39:22.808Z,19.00
2022-12-17T21:42:10.377Z,25.75
2022-12-17T21:44:39.064Z,23.50
2022-12-17T21:47:07.808Z,22.75
2022-12-17T21:49:36.126Z,21.75
2022-12-17T21:52:04.786Z,25.75
2022-12-17T21:54:35.812Z,22.50
2022-12-17T21:57:04.974Z,25.50
2022-12-17T21:59:33.306Z,24.25
2022-12-17T22:02:01.811Z,24.75
2022-12-17T22:04:30.235Z,20.75
2022-12-17T22:07:06.855Z,23.50
2022-12-17T22:09:57.087Z,21.25
2022-12-17T22:12:45.780Z,25.75
2022-12-17T22:15:14.131Z,21.00
2022-12-17T22:17:43.506Z,25.25
2022-12-17T22:20:12.754Z,24.25
2022-12-17T22:22:41.035Z,27.50
2022-12-17T22:25:11.495Z,24.75
2022-12-17T22:27:42.260Z,22.25
2022-12-17T22:30:34.564Z,21.25
2022-12-17T22:33:09.499Z,23.75
2022-12-17T22:37:49.089Z,29.00
2022-12-17T22:41:04.816Z,24.50
2022-12-17T22:44:34.798Z,26.50
2022-12-17T22:44:53.391Z,30.25
2022-12-17T22:47:22.828Z,23.50
2022-12-17T22:49:51.575Z,24.50
2022-12-17T22:52:20.692Z,26.75
2022-12-17T22:54:49.335Z,26.00
2022-12-17T22:57:34.582Z,24.75
2022-12-17T23:00:18.637Z,23.25
2022-12-17T23:02:47.098Z,28.00
2022-12-17T23:05:15.736Z,23.25
2022-12-17T23:07:44.030Z,29.50
2022-12-17T23:10:12.414Z,26.00
2022-12-17T23:12:52.962Z,26.50
2022-12-17T23:15:31.288Z,26.25
2022-12-17T23:18:02.014Z,26.75
2022-12-17T23:20:32.433Z,27.25
2022-12-17T23:23:01.651Z,29.00
2022-12-17T23:25:30.351Z,26.25
2022-12-17T23:27:58.707Z,24.00
2022-12-17T23:30:27.726Z,30.50
2022-12-17T23:32:56.022Z,26.75
2022-12-17T23:35:24.495Z,28.75
2022-12-17T23:37:53.320Z,26.50
2022-12-17T23:40:22.323Z,26.75
2022-12-17T23:42:50.961Z,27.50
2022-12-17T23:45:19.252Z,27.75
2022-12-17T23:47:47.779Z,29.50
2022-12-17T23:50:16.074Z,30.75
2022-12-17T23:52:44.353Z,32.00
2022-12-17T23:55:12.667Z,28.50
2022-12-17T23:57:41.070Z,30.50
